»·PEaware :: SWA234 KABQ-KGJT

SWA234 :: KABQ-KGJT

FLIGHT INFORMATION

Flight Status: Arrived
Operator:
Southwest Airlines
More flights by this operator :: More flights under this callsign
Pilot: Peter H. (12565)
Aircraft: BOEING 737-300
(B733)
More flights by this aircraft type
Origin: KABQ Albuquerque Intl Sunport
United States
Destination: KGJT Walker
United States
More flights between these airports :: More routes between these airports
Route: LARGO3 RSK
File this flight plan on PilotEdge
Remarks:
Altitude:
(Current/Filed)
22,000ft
Speed:
(Current/Filed)
450kts
Departed: 10-Dec-17 05:55 PM
Arrived: 10-Dec-17 06:50 PM
Distance/Time
Traveled:
261nm/0:55
Distance/Time
To Go:
Arrived

Flight Plot

Page will automatically refresh every two minutes.

Flight plan parsing failed; only flown route is shown


Map Options




Map Legend


Flown Route
Filed Route
Departure Airport
Arrival Airport
Navaid (VOR, NDB)
Fix

Horizontal Profiles

Position Reports

Time Latitude Longitude Heading Altitude Ground
Speed
10-Dec-17 17:38 35.046920 -106.616912 11 5311ft 0kts
10-Dec-17 17:39 35.046920 -106.616912 11 5311ft 0kts
10-Dec-17 17:40 35.046920 -106.616912 11 5311ft 0kts
10-Dec-17 17:41 35.046920 -106.616912 11 5311ft 0kts
10-Dec-17 17:42 35.046920 -106.616912 11 5311ft 0kts
10-Dec-17 17:43 35.046920 -106.616912 11 5311ft 0kts
10-Dec-17 17:44 35.046920 -106.616912 11 5311ft 0kts
10-Dec-17 17:45 35.046920 -106.616912 11 5311ft 0kts
10-Dec-17 17:46 35.046920 -106.616912 11 5311ft 0kts
10-Dec-17 17:47 35.046920 -106.616912 11 5311ft 0kts
10-Dec-17 17:48 35.046920 -106.616912 11 5311ft 0kts
10-Dec-17 17:49 35.046920 -106.616912 11 5311ft 0kts
10-Dec-17 17:50 35.046920 -106.616912 11 5311ft 0kts
10-Dec-17 17:51 35.046985 -106.616893 13 5311ft 0kts
10-Dec-17 17:52 35.047067 -106.616866 16 5311ft 0kts
10-Dec-17 17:53 35.047067 -106.616866 16 5311ft 0kts
10-Dec-17 17:54 35.047067 -106.616866 16 5311ft 0kts
10-Dec-17 17:55 35.047120 -106.616854 10 5311ft 0kts
10-Dec-17 17:56 35.047230 -106.616885 330 5311ft 1kts
10-Dec-17 17:57 35.047107 -106.617357 235 5310ft 8kts
10-Dec-17 17:58 35.045417 -106.619481 206 5309ft 0kts
10-Dec-17 17:59 35.044386 -106.619442 115 5310ft 5kts
10-Dec-17 18:00 35.044275 -106.600819 90 5361ft 169kts
10-Dec-17 18:01 35.069628 -106.552303 352 8090ft 214kts
10-Dec-17 18:02 35.117165 -106.595055 318 9046ft 236kts
10-Dec-17 18:03 35.175406 -106.658447 318 10643ft 323kts
10-Dec-17 18:04 35.243399 -106.732998 318 14112ft 337kts
10-Dec-17 18:05 35.312770 -106.812229 318 17216ft 350kts
10-Dec-17 18:06 35.401238 -106.848828 354 19768ft 361kts
10-Dec-17 18:07 35.503064 -106.867399 353 21922ft 384kts
10-Dec-17 18:08 35.606479 -106.886599 353 22470ft 398kts
10-Dec-17 18:09 35.709792 -106.905758 351 22482ft 403kts
10-Dec-17 18:10 35.812201 -106.924805 350 22485ft 403kts
10-Dec-17 18:11 35.921610 -106.945207 349 22485ft 394kts
10-Dec-17 18:12 36.025169 -106.968823 329 22458ft 382kts
10-Dec-17 18:13 36.076202 -107.045360 304 22490ft 378kts
10-Dec-17 18:14 36.133504 -107.136292 306 22480ft 378kts
10-Dec-17 18:15 36.193779 -107.229300 306 22482ft 378kts
10-Dec-17 18:16 36.256935 -107.326962 306 22481ft 376kts
10-Dec-17 18:17 36.321399 -107.426933 306 22485ft 376kts
10-Dec-17 18:18 36.385168 -107.526119 306 22482ft 375kts
10-Dec-17 18:19 36.449729 -107.626829 306 22486ft 376kts
10-Dec-17 18:20 36.512762 -107.725655 306 22483ft 375kts
10-Dec-17 18:21 36.576541 -107.825770 306 22469ft 376kts
10-Dec-17 18:22 36.639709 -107.925183 306 22481ft 375kts
10-Dec-17 18:23 36.702453 -108.024218 306 22482ft 375kts
10-Dec-17 18:24 36.772583 -108.110418 343 22474ft 384kts
10-Dec-17 18:25 36.867079 -108.120398 350 22484ft 389kts
10-Dec-17 18:26 36.967565 -108.137176 349 22484ft 388kts
10-Dec-17 18:27 37.055987 -108.152648 349 22480ft 378kts
10-Dec-17 18:28 37.146866 -108.168588 350 22479ft 371kts
10-Dec-17 18:29 37.235568 -108.184204 351 22480ft 367kts
10-Dec-17 18:31 37.325686 -108.200126 352 22479ft 367kts
10-Dec-17 18:32 37.416422 -108.216190 353 22479ft 368kts
10-Dec-17 18:33 37.507568 -108.232369 353 22555ft 369kts
10-Dec-17 18:34 37.599534 -108.248734 353 22562ft 368kts
10-Dec-17 18:35 37.692576 -108.265331 353 22562ft 368kts
10-Dec-17 18:36 37.782039 -108.281330 353 22562ft 368kts
10-Dec-17 18:37 37.867661 -108.296678 353 22562ft 368kts
10-Dec-17 18:38 37.958464 -108.312995 353 22562ft 368kts
10-Dec-17 18:39 38.048987 -108.329301 352 22548ft 366kts
10-Dec-17 18:40 38.136731 -108.345126 352 22525ft 367kts
10-Dec-17 18:41 38.228156 -108.361654 353 22536ft 368kts
10-Dec-17 18:42 38.319096 -108.378158 352 21110ft 360kts
10-Dec-17 18:43 38.411065 -108.394891 352 19308ft 348kts
10-Dec-17 18:44 38.496385 -108.410456 352 17593ft 338kts
10-Dec-17 18:45 38.579021 -108.425563 352 15886ft 330kts
10-Dec-17 18:46 38.658719 -108.440167 352 14992ft 324kts
10-Dec-17 18:47 38.741183 -108.455311 352 13792ft 337kts
10-Dec-17 18:48 38.825647 -108.470862 352 12121ft 318kts
10-Dec-17 18:49 38.899687 -108.484523 352 12003ft 269kts
10-Dec-17 18:50 38.964418 -108.496400 351 11681ft 239kts
10-Dec-17 18:51 39.019841 -108.507642 352 10277ft 215kts
10-Dec-17 18:52 39.066347 -108.518703 350 8947ft 175kts
10-Dec-17 18:53 39.102370 -108.543967 321 7303ft 150kts
10-Dec-17 18:54 39.132421 -108.574786 323 6079ft 138kts
10-Dec-17 18:55 39.139748 -108.553909 126 5211ft 153kts
10-Dec-17 18:56 39.122572 -108.523061 270 4850ft 14kts

Navigation Log

Ident Type
Flight plan parsing failed, navigation log unavailable